< < Back
Terminal Aerodrome Forecast


Current Version              Previous Versions:   1  2  3  4  5  6  7  8  9  

Terminal Aerodrome Forecast

733
FTUS42 KCHS 070006 AAA
TAFSAV
TAF AMD
KSAV 070006Z 0700/0724 VRB05KT 6SM -TSRA SCT015 BKN040CB
     FM070100 VRB04KT P6SM SCT020 BKN250
     FM072000 16012KT P6SM SCT040 SCT060=



Latest METAR

627
SAUS80 KWBC 070400
MTRSAV
METAR KSAV 070353Z 21005KT 10SM SCT055 SCT080 BKN140 BKN200 23/22 A3011
RMK AO2 SLP196 T02330217


USA.gov is the U.S. government's official web portal to all federal, state and local government web resources and services.